sensor_id;sensor_type;location;lat;lon;timestamp;P1;durP1;ratioP1;P2;durP2;ratioP2
46755;SDS011;32506;52.826;-1.192;2022-12-20T00:00:53;1.10;;;0.17;;
46755;SDS011;32506;52.826;-1.192;2022-12-20T00:03:18;0.17;;;0.10;;
46755;SDS011;32506;52.826;-1.192;2022-12-20T00:05:44;1.27;;;0.20;;
46755;SDS011;32506;52.826;-1.192;2022-12-20T00:08:11;0.10;;;0.00;;
46755;SDS011;32506;52.826;-1.192;2022-12-20T00:10:37;0.13;;;0.00;;
46755;SDS011;32506;52.826;-1.192;2022-12-20T00:13:03;0.15;;;0.10;;
46755;SDS011;32506;52.826;-1.192;2022-12-20T00:15:29;0.08;;;0.05;;
46755;SDS011;32506;52.826;-1.192;2022-12-20T00:17:55;1.33;;;0.10;;
46755;SDS011;32506;52.826;-1.192;2022-12-20T00:20:21;0.40;;;0.20;;
46755;SDS011;32506;52.826;-1.192;2022-12-20T00:22:47;0.65;;;0.22;;
46755;SDS011;32506;52.826;-1.192;2022-12-20T00:25:12;0.73;;;0.20;;
46755;SDS011;32506;52.826;-1.192;2022-12-20T00:27:38;0.88;;;0.40;;
46755;SDS011;32506;52.826;-1.192;2022-12-20T00:30:03;1.40;;;1.10;;
46755;SDS011;32506;52.826;-1.192;2022-12-20T00:32:30;2.13;;;0.52;;
46755;SDS011;32506;52.826;-1.192;2022-12-20T00:34:55;0.70;;;0.28;;
46755;SDS011;32506;52.826;-1.192;2022-12-20T00:37:21;0.70;;;0.30;;
46755;SDS011;32506;52.826;-1.192;2022-12-20T00:39:47;0.70;;;0.30;;
46755;SDS011;32506;52.826;-1.192;2022-12-20T00:42:12;2.67;;;0.30;;
46755;SDS011;32506;52.826;-1.192;2022-12-20T00:44:39;0.75;;;0.30;;
46755;SDS011;32506;52.826;-1.192;2022-12-20T00:47:05;1.60;;;0.20;;
46755;SDS011;32506;52.826;-1.192;2022-12-20T00:49:30;0.73;;;0.32;;
46755;SDS011;32506;52.826;-1.192;2022-12-20T00:51:56;2.28;;;0.20;;
46755;SDS011;32506;52.826;-1.192;2022-12-20T00:54:21;0.57;;;0.20;;
46755;SDS011;32506;52.826;-1.192;2022-12-20T00:56:46;1.05;;;0.20;;
46755;SDS011;32506;52.826;-1.192;2022-12-20T00:59:12;2.92;;;0.30;;
46755;SDS011;32506;52.826;-1.192;2022-12-20T01:01:37;1.15;;;0.30;;
46755;SDS011;32506;52.826;-1.192;2022-12-20T01:04:03;0.68;;;0.20;;
46755;SDS011;32506;52.826;-1.192;2022-12-20T01:06:29;2.70;;;0.35;;
46755;SDS011;32506;52.826;-1.192;2022-12-20T01:08:55;0.88;;;0.22;;
46755;SDS011;32506;52.826;-1.192;2022-12-20T01:11:22;0.50;;;0.10;;
46755;SDS011;32506;52.826;-1.192;2022-12-20T01:13:50;0.43;;;0.20;;
46755;SDS011;32506;52.826;-1.192;2022-12-20T01:16:25;1.13;;;0.20;;
46755;SDS011;32506;52.826;-1.192;2022-12-20T01:18:52;0.35;;;0.20;;
46755;SDS011;32506;52.826;-1.192;2022-12-20T01:21:19;1.05;;;0.30;;
46755;SDS011;32506;52.826;-1.192;2022-12-20T01:23:46;1.35;;;0.75;;
46755;SDS011;32506;52.826;-1.192;2022-12-20T01:26:13;1.13;;;0.20;;
46755;SDS011;32506;52.826;-1.192;2022-12-20T01:28:41;0.88;;;0.15;;
46755;SDS011;32506;52.826;-1.192;2022-12-20T01:31:09;1.15;;;0.20;;
46755;SDS011;32506;52.826;-1.192;2022-12-20T01:33:37;1.58;;;0.40;;
46755;SDS011;32506;52.826;-1.192;2022-12-20T01:36:04;0.90;;;0.30;;
46755;SDS011;32506;52.826;-1.192;2022-12-20T01:38:33;1.33;;;0.20;;
46755;SDS011;32506;52.826;-1.192;2022-12-20T01:40:59;0.28;;;0.10;;
46755;SDS011;32506;52.826;-1.192;2022-12-20T01:43:28;1.20;;;0.30;;
46755;SDS011;32506;52.826;-1.192;2022-12-20T01:46:20;1.17;;;0.20;;
46755;SDS011;32506;52.826;-1.192;2022-12-20T01:48:49;1.05;;;0.40;;
46755;SDS011;32506;52.826;-1.192;2022-12-20T01:51:20;1.50;;;0.25;;
46755;SDS011;32506;52.826;-1.192;2022-12-20T01:53:48;0.20;;;0.10;;
46755;SDS011;32506;52.826;-1.192;2022-12-20T01:56:19;0.28;;;0.17;;
46755;SDS011;32506;52.826;-1.192;2022-12-20T01:58:45;0.82;;;0.20;;
46755;SDS011;32506;52.826;-1.192;2022-12-20T02:01:14;0.82;;;0.20;;
46755;SDS011;32506;52.826;-1.192;2022-12-20T02:03:40;1.20;;;0.30;;
46755;SDS011;32506;52.826;-1.192;2022-12-20T02:06:14;0.52;;;0.20;;
46755;SDS011;32506;52.826;-1.192;2022-12-20T02:08:42;1.25;;;0.20;;
46755;SDS011;32506;52.826;-1.192;2022-12-20T02:13:58;1.33;;;0.20;;
46755;SDS011;32506;52.826;-1.192;2022-12-20T02:16:34;0.57;;;0.20;;
46755;SDS011;32506;52.826;-1.192;2022-12-20T02:19:25;0.50;;;0.20;;
46755;SDS011;32506;52.826;-1.192;2022-12-20T02:30:37;0.30;;;0.10;;
46755;SDS011;32506;52.826;-1.192;2022-12-20T02:33:06;0.65;;;0.20;;
46755;SDS011;32506;52.826;-1.192;2022-12-20T02:35:35;0.55;;;0.20;;
46755;SDS011;32506;52.826;-1.192;2022-12-20T02:40:53;0.20;;;0.10;;
46755;SDS011;32506;52.826;-1.192;2022-12-20T02:43:32;2.15;;;0.28;;
46755;SDS011;32506;52.826;-1.192;2022-12-20T02:46:18;0.32;;;0.20;;
46755;SDS011;32506;52.826;-1.192;2022-12-20T02:48:47;0.60;;;0.10;;
46755;SDS011;32506;52.826;-1.192;2022-12-20T02:51:15;0.80;;;0.20;;
46755;SDS011;32506;52.826;-1.192;2022-12-20T02:53:43;1.13;;;0.43;;
46755;SDS011;32506;52.826;-1.192;2022-12-20T02:56:11;0.40;;;0.20;;
46755;SDS011;32506;52.826;-1.192;2022-12-20T02:58:52;0.35;;;0.17;;
46755;SDS011;32506;52.826;-1.192;2022-12-20T03:01:54;0.60;;;0.20;;
46755;SDS011;32506;52.826;-1.192;2022-12-20T03:04:22;2.13;;;0.40;;
46755;SDS011;32506;52.826;-1.192;2022-12-20T03:09:25;0.77;;;0.20;;
46755;SDS011;32506;52.826;-1.192;2022-12-20T03:11:51;0.50;;;0.10;;
46755;SDS011;32506;52.826;-1.192;2022-12-20T03:14:17;1.30;;;0.30;;
46755;SDS011;32506;52.826;-1.192;2022-12-20T03:16:42;1.00;;;0.20;;
46755;SDS011;32506;52.826;-1.192;2022-12-20T03:19:08;1.27;;;0.30;;
46755;SDS011;32506;52.826;-1.192;2022-12-20T03:21:33;0.70;;;0.10;;
46755;SDS011;32506;52.826;-1.192;2022-12-20T03:23:59;0.90;;;0.20;;
46755;SDS011;32506;52.826;-1.192;2022-12-20T03:26:24;1.38;;;0.10;;
46755;SDS011;32506;52.826;-1.192;2022-12-20T03:28:50;0.73;;;0.10;;
46755;SDS011;32506;52.826;-1.192;2022-12-20T03:31:15;0.57;;;0.10;;
46755;SDS011;32506;52.826;-1.192;2022-12-20T03:33:40;0.52;;;0.20;;
46755;SDS011;32506;52.826;-1.192;2022-12-20T03:36:06;1.90;;;0.20;;
46755;SDS011;32506;52.826;-1.192;2022-12-20T03:38:32;0.10;;;0.05;;
46755;SDS011;32506;52.826;-1.192;2022-12-20T03:40:57;1.23;;;0.20;;
46755;SDS011;32506;52.826;-1.192;2022-12-20T03:43:22;0.93;;;0.17;;
46755;SDS011;32506;52.826;-1.192;2022-12-20T03:45:48;0.70;;;0.40;;
46755;SDS011;32506;52.826;-1.192;2022-12-20T03:48:13;1.77;;;0.32;;
46755;SDS011;32506;52.826;-1.192;2022-12-20T03:50:39;0.60;;;0.20;;
46755;SDS011;32506;52.826;-1.192;2022-12-20T03:53:05;0.38;;;0.15;;
46755;SDS011;32506;52.826;-1.192;2022-12-20T03:55:30;1.20;;;0.22;;
46755;SDS011;32506;52.826;-1.192;2022-12-20T03:57:56;0.57;;;0.10;;
46755;SDS011;32506;52.826;-1.192;2022-12-20T04:00:21;0.60;;;0.45;;
46755;SDS011;32506;52.826;-1.192;2022-12-20T04:02:47;1.80;;;0.28;;
46755;SDS011;32506;52.826;-1.192;2022-12-20T04:05:12;1.85;;;0.20;;
46755;SDS011;32506;52.826;-1.192;2022-12-20T04:07:38;0.88;;;0.20;;
46755;SDS011;32506;52.826;-1.192;2022-12-20T04:10:03;0.77;;;0.25;;
46755;SDS011;32506;52.826;-1.192;2022-12-20T04:12:29;0.85;;;0.20;;
46755;SDS011;32506;52.826;-1.192;2022-12-20T04:14:55;3.15;;;0.50;;
46755;SDS011;32506;52.826;-1.192;2022-12-20T04:17:20;2.08;;;0.38;;
46755;SDS011;32506;52.826;-1.192;2022-12-20T04:19:46;0.40;;;0.10;;
46755;SDS011;32506;52.826;-1.192;2022-12-20T04:22:11;2.20;;;0.20;;
46755;SDS011;32506;52.826;-1.192;2022-12-20T04:24:37;0.90;;;0.10;;
46755;SDS011;32506;52.826;-1.192;2022-12-20T04:27:02;0.68;;;0.15;;
46755;SDS011;32506;52.826;-1.192;2022-12-20T04:29:28;0.90;;;0.20;;
46755;SDS011;32506;52.826;-1.192;2022-12-20T04:31:53;1.20;;;0.20;;
46755;SDS011;32506;52.826;-1.192;2022-12-20T04:34:19;1.83;;;0.20;;
46755;SDS011;32506;52.826;-1.192;2022-12-20T04:36:44;1.02;;;0.20;;
46755;SDS011;32506;52.826;-1.192;2022-12-20T04:39:10;1.30;;;0.30;;
46755;SDS011;32506;52.826;-1.192;2022-12-20T04:41:35;2.38;;;0.30;;
46755;SDS011;32506;52.826;-1.192;2022-12-20T04:44:01;1.55;;;0.13;;
46755;SDS011;32506;52.826;-1.192;2022-12-20T04:46:26;1.63;;;0.25;;
46755;SDS011;32506;52.826;-1.192;2022-12-20T04:48:52;1.40;;;0.30;;
46755;SDS011;32506;52.826;-1.192;2022-12-20T04:51:18;1.73;;;0.20;;
46755;SDS011;32506;52.826;-1.192;2022-12-20T04:53:43;1.02;;;0.50;;
46755;SDS011;32506;52.826;-1.192;2022-12-20T04:56:18;0.43;;;0.10;;
46755;SDS011;32506;52.826;-1.192;2022-12-20T04:58:46;0.73;;;0.28;;
46755;SDS011;32506;52.826;-1.192;2022-12-20T05:01:13;2.55;;;0.65;;
46755;SDS011;32506;52.826;-1.192;2022-12-20T05:03:39;0.98;;;0.20;;
46755;SDS011;32506;52.826;-1.192;2022-12-20T05:06:05;0.55;;;0.20;;
46755;SDS011;32506;52.826;-1.192;2022-12-20T05:08:30;1.20;;;0.20;;
46755;SDS011;32506;52.826;-1.192;2022-12-20T05:10:56;1.40;;;0.20;;
46755;SDS011;32506;52.826;-1.192;2022-12-20T05:13:21;0.57;;;0.22;;
46755;SDS011;32506;52.826;-1.192;2022-12-20T05:15:50;2.05;;;0.30;;
46755;SDS011;32506;52.826;-1.192;2022-12-20T05:18:17;2.33;;;0.20;;
46755;SDS011;32506;52.826;-1.192;2022-12-20T05:20:43;1.55;;;0.30;;
46755;SDS011;32506;52.826;-1.192;2022-12-20T05:23:09;0.93;;;0.30;;
46755;SDS011;32506;52.826;-1.192;2022-12-20T05:25:53;0.57;;;0.30;;
46755;SDS011;32506;52.826;-1.192;2022-12-20T05:28:38;0.20;;;0.15;;
46755;SDS011;32506;52.826;-1.192;2022-12-20T05:31:03;0.40;;;0.20;;
46755;SDS011;32506;52.826;-1.192;2022-12-20T05:33:29;0.55;;;0.20;;
46755;SDS011;32506;52.826;-1.192;2022-12-20T05:35:54;1.15;;;0.25;;
46755;SDS011;32506;52.826;-1.192;2022-12-20T05:38:20;1.83;;;0.20;;
46755;SDS011;32506;52.826;-1.192;2022-12-20T05:40:47;1.33;;;0.30;;
46755;SDS011;32506;52.826;-1.192;2022-12-20T05:43:13;2.38;;;0.30;;
46755;SDS011;32506;52.826;-1.192;2022-12-20T05:45:39;0.70;;;0.28;;
46755;SDS011;32506;52.826;-1.192;2022-12-20T05:48:05;2.17;;;0.40;;
46755;SDS011;32506;52.826;-1.192;2022-12-20T05:50:30;1.02;;;0.30;;
46755;SDS011;32506;52.826;-1.192;2022-12-20T05:52:56;3.20;;;0.68;;
46755;SDS011;32506;52.826;-1.192;2022-12-20T05:55:21;2.15;;;0.20;;
46755;SDS011;32506;52.826;-1.192;2022-12-20T05:57:47;1.20;;;0.30;;
46755;SDS011;32506;52.826;-1.192;2022-12-20T06:00:13;0.52;;;0.20;;
46755;SDS011;32506;52.826;-1.192;2022-12-20T06:02:40;1.35;;;0.20;;
46755;SDS011;32506;52.826;-1.192;2022-12-20T06:05:06;1.42;;;0.30;;
46755;SDS011;32506;52.826;-1.192;2022-12-20T06:07:31;3.50;;;0.38;;
46755;SDS011;32506;52.826;-1.192;2022-12-20T06:09:57;1.10;;;0.20;;
46755;SDS011;32506;52.826;-1.192;2022-12-20T06:12:23;0.63;;;0.20;;
46755;SDS011;32506;52.826;-1.192;2022-12-20T06:14:49;1.17;;;0.30;;
46755;SDS011;32506;52.826;-1.192;2022-12-20T06:17:14;3.55;;;0.57;;
46755;SDS011;32506;52.826;-1.192;2022-12-20T06:19:39;0.98;;;0.20;;
46755;SDS011;32506;52.826;-1.192;2022-12-20T06:22:06;1.38;;;0.28;;
46755;SDS011;32506;52.826;-1.192;2022-12-20T06:24:33;3.30;;;0.30;;
46755;SDS011;32506;52.826;-1.192;2022-12-20T06:26:59;0.90;;;0.15;;
46755;SDS011;32506;52.826;-1.192;2022-12-20T06:29:25;2.55;;;0.30;;
46755;SDS011;32506;52.826;-1.192;2022-12-20T06:31:51;3.17;;;0.32;;
46755;SDS011;32506;52.826;-1.192;2022-12-20T06:34:16;2.05;;;0.35;;
46755;SDS011;32506;52.826;-1.192;2022-12-20T06:36:42;1.10;;;0.30;;
46755;SDS011;32506;52.826;-1.192;2022-12-20T06:39:07;2.65;;;0.28;;
46755;SDS011;32506;52.826;-1.192;2022-12-20T06:41:33;0.50;;;0.10;;
46755;SDS011;32506;52.826;-1.192;2022-12-20T06:43:59;3.03;;;0.30;;
46755;SDS011;32506;52.826;-1.192;2022-12-20T06:46:25;1.65;;;0.22;;
46755;SDS011;32506;52.826;-1.192;2022-12-20T06:48:51;1.23;;;0.25;;
46755;SDS011;32506;52.826;-1.192;2022-12-20T06:51:17;1.95;;;0.32;;
46755;SDS011;32506;52.826;-1.192;2022-12-20T06:53:42;1.48;;;0.30;;
46755;SDS011;32506;52.826;-1.192;2022-12-20T06:56:08;5.63;;;0.38;;
46755;SDS011;32506;52.826;-1.192;2022-12-20T06:58:33;0.88;;;0.20;;
46755;SDS011;32506;52.826;-1.192;2022-12-20T07:00:59;3.03;;;0.30;;
46755;SDS011;32506;52.826;-1.192;2022-12-20T07:03:24;2.70;;;0.30;;
46755;SDS011;32506;52.826;-1.192;2022-12-20T07:05:53;1.00;;;0.20;;
46755;SDS011;32506;52.826;-1.192;2022-12-20T07:08:19;4.40;;;0.50;;
46755;SDS011;32506;52.826;-1.192;2022-12-20T07:10:45;2.72;;;0.40;;
46755;SDS011;32506;52.826;-1.192;2022-12-20T07:13:11;2.25;;;0.30;;
46755;SDS011;32506;52.826;-1.192;2022-12-20T07:15:36;1.73;;;0.30;;
46755;SDS011;32506;52.826;-1.192;2022-12-20T07:18:02;2.35;;;0.55;;
46755;SDS011;32506;52.826;-1.192;2022-12-20T07:20:29;3.08;;;0.40;;
46755;SDS011;32506;52.826;-1.192;2022-12-20T07:22:55;1.42;;;0.40;;
46755;SDS011;32506;52.826;-1.192;2022-12-20T07:25:21;3.28;;;0.50;;
46755;SDS011;32506;52.826;-1.192;2022-12-20T07:27:47;3.25;;;0.40;;
46755;SDS011;32506;52.826;-1.192;2022-12-20T07:30:17;1.83;;;0.40;;
46755;SDS011;32506;52.826;-1.192;2022-12-20T07:32:43;2.15;;;0.50;;
46755;SDS011;32506;52.826;-1.192;2022-12-20T07:35:09;3.88;;;0.95;;
46755;SDS011;32506;52.826;-1.192;2022-12-20T07:37:35;1.65;;;0.38;;
46755;SDS011;32506;52.826;-1.192;2022-12-20T07:40:01;2.40;;;0.40;;
46755;SDS011;32506;52.826;-1.192;2022-12-20T07:42:27;3.08;;;0.30;;
46755;SDS011;32506;52.826;-1.192;2022-12-20T07:44:52;3.50;;;0.57;;
46755;SDS011;32506;52.826;-1.192;2022-12-20T07:47:18;2.72;;;0.52;;
46755;SDS011;32506;52.826;-1.192;2022-12-20T07:49:43;3.22;;;0.38;;
46755;SDS011;32506;52.826;-1.192;2022-12-20T07:52:09;1.17;;;0.30;;
46755;SDS011;32506;52.826;-1.192;2022-12-20T07:54:38;1.25;;;0.40;;
46755;SDS011;32506;52.826;-1.192;2022-12-20T07:57:11;3.85;;;0.60;;
46755;SDS011;32506;52.826;-1.192;2022-12-20T07:59:41;4.57;;;1.17;;
46755;SDS011;32506;52.826;-1.192;2022-12-20T08:02:12;1.30;;;0.60;;
46755;SDS011;32506;52.826;-1.192;2022-12-20T08:04:44;5.07;;;0.90;;
46755;SDS011;32506;52.826;-1.192;2022-12-20T08:07:10;2.58;;;0.50;;
46755;SDS011;32506;52.826;-1.192;2022-12-20T08:09:37;3.45;;;0.50;;
46755;SDS011;32506;52.826;-1.192;2022-12-20T08:12:06;3.42;;;0.80;;
46755;SDS011;32506;52.826;-1.192;2022-12-20T08:14:34;5.13;;;0.70;;
46755;SDS011;32506;52.826;-1.192;2022-12-20T08:17:00;2.78;;;0.60;;
46755;SDS011;32506;52.826;-1.192;2022-12-20T08:19:26;8.57;;;1.20;;
46755;SDS011;32506;52.826;-1.192;2022-12-20T08:21:51;6.07;;;0.82;;
46755;SDS011;32506;52.826;-1.192;2022-12-20T08:24:17;4.32;;;1.13;;
46755;SDS011;32506;52.826;-1.192;2022-12-20T08:26:42;5.45;;;0.52;;
46755;SDS011;32506;52.826;-1.192;2022-12-20T08:29:07;5.50;;;0.80;;
46755;SDS011;32506;52.826;-1.192;2022-12-20T08:31:37;5.00;;;0.80;;
46755;SDS011;32506;52.826;-1.192;2022-12-20T08:34:04;6.45;;;1.48;;
46755;SDS011;32506;52.826;-1.192;2022-12-20T08:36:29;8.13;;;0.93;;
46755;SDS011;32506;52.826;-1.192;2022-12-20T08:38:55;3.80;;;0.95;;
46755;SDS011;32506;52.826;-1.192;2022-12-20T08:41:20;4.47;;;0.90;;
46755;SDS011;32506;52.826;-1.192;2022-12-20T08:43:46;4.32;;;0.80;;
46755;SDS011;32506;52.826;-1.192;2022-12-20T08:46:11;6.70;;;0.95;;
46755;SDS011;32506;52.826;-1.192;2022-12-20T08:48:37;4.88;;;1.33;;
46755;SDS011;32506;52.826;-1.192;2022-12-20T08:51:05;4.95;;;0.95;;
46755;SDS011;32506;52.826;-1.192;2022-12-20T08:53:32;4.28;;;1.38;;
46755;SDS011;32506;52.826;-1.192;2022-12-20T08:56:06;4.28;;;0.70;;
46755;SDS011;32506;52.826;-1.192;2022-12-20T08:58:34;7.20;;;1.10;;
46755;SDS011;32506;52.826;-1.192;2022-12-20T09:01:00;7.00;;;1.00;;
46755;SDS011;32506;52.826;-1.192;2022-12-20T09:03:28;10.02;;;1.40;;
46755;SDS011;32506;52.826;-1.192;2022-12-20T09:05:55;4.15;;;1.00;;
46755;SDS011;32506;52.826;-1.192;2022-12-20T09:08:21;4.63;;;1.33;;
46755;SDS011;32506;52.826;-1.192;2022-12-20T09:10:46;7.05;;;1.02;;
46755;SDS011;32506;52.826;-1.192;2022-12-20T09:13:12;7.55;;;1.50;;
46755;SDS011;32506;52.826;-1.192;2022-12-20T09:15:37;6.60;;;1.10;;
46755;SDS011;32506;52.826;-1.192;2022-12-20T09:18:02;3.85;;;1.00;;
46755;SDS011;32506;52.826;-1.192;2022-12-20T09:20:29;7.63;;;1.10;;
46755;SDS011;32506;52.826;-1.192;2022-12-20T09:22:55;4.78;;;1.00;;
46755;SDS011;32506;52.826;-1.192;2022-12-20T09:25:23;8.27;;;1.25;;
46755;SDS011;32506;52.826;-1.192;2022-12-20T09:27:49;5.13;;;0.68;;
46755;SDS011;32506;52.826;-1.192;2022-12-20T09:30:14;10.10;;;2.17;;
46755;SDS011;32506;52.826;-1.192;2022-12-20T09:32:40;6.88;;;1.20;;
46755;SDS011;32506;52.826;-1.192;2022-12-20T09:35:05;6.82;;;1.45;;
46755;SDS011;32506;52.826;-1.192;2022-12-20T09:37:31;9.73;;;1.30;;
46755;SDS011;32506;52.826;-1.192;2022-12-20T09:39:57;5.88;;;0.93;;
46755;SDS011;32506;52.826;-1.192;2022-12-20T09:42:26;4.70;;;1.13;;
46755;SDS011;32506;52.826;-1.192;2022-12-20T09:45:05;3.85;;;0.90;;
46755;SDS011;32506;52.826;-1.192;2022-12-20T09:47:33;6.10;;;0.93;;
46755;SDS011;32506;52.826;-1.192;2022-12-20T09:50:00;8.13;;;1.20;;
46755;SDS011;32506;52.826;-1.192;2022-12-20T09:55:49;7.38;;;1.38;;
46755;SDS011;32506;52.826;-1.192;2022-12-20T09:58:43;2.97;;;0.80;;
46755;SDS011;32506;52.826;-1.192;2022-12-20T10:01:24;6.20;;;0.90;;
46755;SDS011;32506;52.826;-1.192;2022-12-20T10:03:52;8.23;;;1.05;;
46755;SDS011;32506;52.826;-1.192;2022-12-20T10:11:44;9.32;;;1.55;;
46755;SDS011;32506;52.826;-1.192;2022-12-20T10:17:04;7.32;;;1.48;;
46755;SDS011;32506;52.826;-1.192;2022-12-20T10:22:45;6.05;;;1.00;;
46755;SDS011;32506;52.826;-1.192;2022-12-20T10:25:36;8.32;;;1.13;;
46755;SDS011;32506;52.826;-1.192;2022-12-20T10:28:03;6.72;;;0.77;;
46755;SDS011;32506;52.826;-1.192;2022-12-20T10:30:39;5.82;;;1.30;;
46755;SDS011;32506;52.826;-1.192;2022-12-20T10:33:07;7.43;;;1.20;;
46755;SDS011;32506;52.826;-1.192;2022-12-20T10:35:52;7.55;;;1.20;;
46755;SDS011;32506;52.826;-1.192;2022-12-20T10:38:17;5.38;;;1.65;;
46755;SDS011;32506;52.826;-1.192;2022-12-20T10:40:58;7.55;;;1.20;;
46755;SDS011;32506;52.826;-1.192;2022-12-20T10:43:25;5.95;;;1.58;;
46755;SDS011;32506;52.826;-1.192;2022-12-20T10:45:56;7.20;;;1.08;;
46755;SDS011;32506;52.826;-1.192;2022-12-20T10:48:36;6.18;;;1.08;;
46755;SDS011;32506;52.826;-1.192;2022-12-20T10:56:26;11.32;;;1.40;;
46755;SDS011;32506;52.826;-1.192;2022-12-20T10:58:58;7.43;;;1.17;;
46755;SDS011;32506;52.826;-1.192;2022-12-20T11:01:34;4.78;;;1.40;;
46755;SDS011;32506;52.826;-1.192;2022-12-20T11:04:02;10.32;;;1.60;;
46755;SDS011;32506;52.826;-1.192;2022-12-20T11:11:56;5.75;;;1.08;;
46755;SDS011;32506;52.826;-1.192;2022-12-20T11:14:28;7.43;;;2.33;;
46755;SDS011;32506;52.826;-1.192;2022-12-20T11:16:55;10.48;;;1.70;;
46755;SDS011;32506;52.826;-1.192;2022-12-20T11:31:03;9.75;;;2.13;;
46755;SDS011;32506;52.826;-1.192;2022-12-20T11:42:32;6.63;;;1.73;;
46755;SDS011;32506;52.826;-1.192;2022-12-20T11:45:20;11.02;;;2.40;;
46755;SDS011;32506;52.826;-1.192;2022-12-20T11:53:40;8.50;;;1.33;;
46755;SDS011;32506;52.826;-1.192;2022-12-20T12:01:18;11.45;;;1.75;;
46755;SDS011;32506;52.826;-1.192;2022-12-20T12:03:56;11.35;;;2.00;;
46755;SDS011;32506;52.826;-1.192;2022-12-20T12:06:30;7.88;;;1.73;;
46755;SDS011;32506;52.826;-1.192;2022-12-20T12:11:52;12.07;;;2.45;;
46755;SDS011;32506;52.826;-1.192;2022-12-20T12:14:28;9.88;;;1.98;;
46755;SDS011;32506;52.826;-1.192;2022-12-20T12:16:54;9.85;;;1.67;;
46755;SDS011;32506;52.826;-1.192;2022-12-20T12:19:24;9.13;;;1.63;;
46755;SDS011;32506;52.826;-1.192;2022-12-20T12:21:56;11.88;;;2.08;;
46755;SDS011;32506;52.826;-1.192;2022-12-20T12:24:27;13.30;;;2.30;;
46755;SDS011;32506;52.826;-1.192;2022-12-20T12:26:58;6.65;;;1.45;;
46755;SDS011;32506;52.826;-1.192;2022-12-20T12:29:25;10.27;;;2.28;;
46755;SDS011;32506;52.826;-1.192;2022-12-20T12:32:07;12.50;;;2.63;;
46755;SDS011;32506;52.826;-1.192;2022-12-20T12:37:29;11.13;;;2.17;;
46755;SDS011;32506;52.826;-1.192;2022-12-20T12:45:37;8.50;;;1.65;;
46755;SDS011;32506;52.826;-1.192;2022-12-20T12:50:51;8.60;;;2.05;;
46755;SDS011;32506;52.826;-1.192;2022-12-20T13:01:50;13.48;;;3.05;;
46755;SDS011;32506;52.826;-1.192;2022-12-20T13:06:53;9.85;;;2.58;;
46755;SDS011;32506;52.826;-1.192;2022-12-20T13:11:50;9.57;;;2.45;;
46755;SDS011;32506;52.826;-1.192;2022-12-20T13:16:42;12.38;;;2.47;;
46755;SDS011;32506;52.826;-1.192;2022-12-20T13:21:55;9.70;;;1.83;;
46755;SDS011;32506;52.826;-1.192;2022-12-20T13:27:21;8.07;;;2.20;;
46755;SDS011;32506;52.826;-1.192;2022-12-20T13:29:51;9.02;;;1.95;;
46755;SDS011;32506;52.826;-1.192;2022-12-20T13:45:48;8.82;;;2.10;;
46755;SDS011;32506;52.826;-1.192;2022-12-20T13:48:17;9.27;;;2.10;;
46755;SDS011;32506;52.826;-1.192;2022-12-20T13:50:52;10.77;;;2.65;;
46755;SDS011;32506;52.826;-1.192;2022-12-20T13:53:20;10.43;;;2.60;;
46755;SDS011;32506;52.826;-1.192;2022-12-20T13:55:47;10.73;;;2.00;;
46755;SDS011;32506;52.826;-1.192;2022-12-20T13:58:27;10.88;;;1.98;;
46755;SDS011;32506;52.826;-1.192;2022-12-20T14:01:05;12.80;;;2.40;;
46755;SDS011;32506;52.826;-1.192;2022-12-20T14:03:39;8.25;;;1.95;;
46755;SDS011;32506;52.826;-1.192;2022-12-20T14:06:09;9.18;;;2.13;;
46755;SDS011;32506;52.826;-1.192;2022-12-20T14:08:37;12.43;;;2.30;;
46755;SDS011;32506;52.826;-1.192;2022-12-20T14:11:08;15.07;;;2.30;;
46755;SDS011;32506;52.826;-1.192;2022-12-20T14:13:38;12.93;;;3.17;;
46755;SDS011;32506;52.826;-1.192;2022-12-20T14:16:14;12.40;;;2.33;;
46755;SDS011;32506;52.826;-1.192;2022-12-20T14:18:41;12.40;;;1.95;;
46755;SDS011;32506;52.826;-1.192;2022-12-20T14:21:12;12.40;;;2.22;;
46755;SDS011;32506;52.826;-1.192;2022-12-20T14:23:42;9.63;;;2.05;;
46755;SDS011;32506;52.826;-1.192;2022-12-20T14:26:10;12.23;;;2.25;;
46755;SDS011;32506;52.826;-1.192;2022-12-20T14:28:42;11.02;;;2.60;;
46755;SDS011;32506;52.826;-1.192;2022-12-20T14:31:23;7.80;;;1.70;;
46755;SDS011;32506;52.826;-1.192;2022-12-20T14:33:50;11.98;;;2.28;;
46755;SDS011;32506;52.826;-1.192;2022-12-20T14:36:24;11.82;;;1.65;;
46755;SDS011;32506;52.826;-1.192;2022-12-20T14:38:50;14.48;;;3.22;;
46755;SDS011;32506;52.826;-1.192;2022-12-20T14:46:37;11.20;;;2.20;;
46755;SDS011;32506;52.826;-1.192;2022-12-20T14:54:58;13.93;;;2.33;;
46755;SDS011;32506;52.826;-1.192;2022-12-20T15:10:56;11.45;;;2.30;;
46755;SDS011;32506;52.826;-1.192;2022-12-20T15:13:24;10.68;;;2.72;;
46755;SDS011;32506;52.826;-1.192;2022-12-20T15:15:54;10.35;;;2.25;;
46755;SDS011;32506;52.826;-1.192;2022-12-20T15:18:22;16.17;;;2.90;;
46755;SDS011;32506;52.826;-1.192;2022-12-20T15:20:49;11.15;;;2.45;;
46755;SDS011;32506;52.826;-1.192;2022-12-20T15:23:24;15.82;;;2.88;;
46755;SDS011;32506;52.826;-1.192;2022-12-20T15:25:49;15.25;;;2.60;;
46755;SDS011;32506;52.826;-1.192;2022-12-20T15:28:16;14.30;;;3.08;;
46755;SDS011;32506;52.826;-1.192;2022-12-20T15:30:45;11.85;;;2.05;;
46755;SDS011;32506;52.826;-1.192;2022-12-20T15:33:15;13.95;;;3.35;;
46755;SDS011;32506;52.826;-1.192;2022-12-20T15:38:13;9.68;;;2.15;;
46755;SDS011;32506;52.826;-1.192;2022-12-20T15:40:46;11.07;;;2.55;;
46755;SDS011;32506;52.826;-1.192;2022-12-20T15:43:13;12.63;;;2.63;;
46755;SDS011;32506;52.826;-1.192;2022-12-20T15:45:41;15.43;;;2.95;;
46755;SDS011;32506;52.826;-1.192;2022-12-20T15:48:11;11.40;;;3.10;;
46755;SDS011;32506;52.826;-1.192;2022-12-20T15:50:39;12.15;;;2.65;;
46755;SDS011;32506;52.826;-1.192;2022-12-20T15:53:08;16.42;;;3.10;;
46755;SDS011;32506;52.826;-1.192;2022-12-20T15:55:38;13.55;;;2.30;;
46755;SDS011;32506;52.826;-1.192;2022-12-20T15:58:04;14.07;;;2.60;;
46755;SDS011;32506;52.826;-1.192;2022-12-20T16:00:29;15.55;;;3.63;;
46755;SDS011;32506;52.826;-1.192;2022-12-20T16:02:55;13.40;;;2.30;;
46755;SDS011;32506;52.826;-1.192;2022-12-20T16:05:23;14.15;;;2.65;;
46755;SDS011;32506;52.826;-1.192;2022-12-20T16:07:48;11.27;;;2.42;;
46755;SDS011;32506;52.826;-1.192;2022-12-20T16:10:14;17.33;;;2.78;;
46755;SDS011;32506;52.826;-1.192;2022-12-20T16:12:39;12.27;;;2.13;;
46755;SDS011;32506;52.826;-1.192;2022-12-20T16:15:10;13.50;;;2.90;;
46755;SDS011;32506;52.826;-1.192;2022-12-20T16:17:44;18.23;;;3.55;;
46755;SDS011;32506;52.826;-1.192;2022-12-20T16:20:10;16.85;;;2.72;;
46755;SDS011;32506;52.826;-1.192;2022-12-20T16:22:35;13.98;;;3.22;;
46755;SDS011;32506;52.826;-1.192;2022-12-20T16:25:01;18.52;;;4.07;;
46755;SDS011;32506;52.826;-1.192;2022-12-20T16:27:27;18.08;;;3.00;;
46755;SDS011;32506;52.826;-1.192;2022-12-20T16:29:52;14.77;;;2.65;;
46755;SDS011;32506;52.826;-1.192;2022-12-20T16:32:18;11.80;;;2.30;;
46755;SDS011;32506;52.826;-1.192;2022-12-20T16:34:46;12.60;;;1.90;;
46755;SDS011;32506;52.826;-1.192;2022-12-20T16:37:13;12.70;;;2.50;;
46755;SDS011;32506;52.826;-1.192;2022-12-20T16:39:39;15.00;;;2.60;;
46755;SDS011;32506;52.826;-1.192;2022-12-20T16:42:15;16.90;;;3.03;;
46755;SDS011;32506;52.826;-1.192;2022-12-20T16:44:42;16.90;;;2.97;;
46755;SDS011;32506;52.826;-1.192;2022-12-20T16:47:09;12.40;;;2.42;;
46755;SDS011;32506;52.826;-1.192;2022-12-20T16:49:35;16.70;;;2.80;;
46755;SDS011;32506;52.826;-1.192;2022-12-20T16:52:01;15.70;;;3.10;;
46755;SDS011;32506;52.826;-1.192;2022-12-20T16:54:28;21.42;;;3.88;;
46755;SDS011;32506;52.826;-1.192;2022-12-20T16:56:54;14.82;;;2.63;;
46755;SDS011;32506;52.826;-1.192;2022-12-20T16:59:23;13.95;;;2.47;;
46755;SDS011;32506;52.826;-1.192;2022-12-20T17:01:50;15.93;;;3.63;;
46755;SDS011;32506;52.826;-1.192;2022-12-20T17:04:17;12.95;;;2.60;;
46755;SDS011;32506;52.826;-1.192;2022-12-20T17:06:43;17.33;;;3.08;;